Aeroporto :
LOGIN :

Iscrizione | Disclaimer

   EN    FR    IT 

 










Sommario :    VFR   VFR Marginale   IFR   IFR Intensivo   IFR Molto Intensivo
Visibilità : 
Base nubi : 
>= 8 km
>= 3000ft
5 / 8 km
1000 / 3000 ft
1500m / 5 km
500 / 1000 ft
800 / 1500m
200 / 500 ft
< 800m
< 200 ft
Simboli :   Temporali  Nebbia  Neve Forte  Precipitazioni Forti  Vento > 20 kt
SIGMETs :   Varie  Temporali  Ghiacco  Turbolenza  Onda orograficha  Ceneri Vulcaniche






- Altitudine del aeroporto : 526 ft
- Codice IATA : LTN


EGGW - London Luton

ULTIMO METAR :
  • 151820Z 20009KT CAVOK 06/04 Q0997

METARs OBSOLETI :
  • 151750Z AUTO 20010KT 9999 FEW029 06/03 Q0997
  • 151720Z AUTO 19007KT 9999 SCT030 06/03 Q0997
  • 151650Z AUTO 20010KT 9999 NCD 07/03 Q0997
  • 151620Z AUTO 21010KT 9999 NCD 07/03 Q0997
  • 151550Z AUTO 21011KT 9999 NCD 07/03 Q0997

TAF TAF EGGW
Valido dal 15 a 18 ore il 16 a 18 ore UTC


151659Z 1518/1618 21010KT 9999 SCT040
PROB30
TEMPO 1518/1601 21015G25KT 6000 SHRA BKN009
BECMG 1615/1618 15004KT
PROB30 1616/1618 7000
ATIS : +44 1582 395 204



MetMap, La meteo Aeronautica in un colpo d'occhio ! - Copyright ORBIFLY Dicembre 2007 - Disclaimer

ORBIFLY MET'MAP TEAM :

Programmazione e sviluppo : Alexandra Zaïnal
Concezione : Baudouin d'Aumeries
Aiuto per la programmazione : Marc-Olivier Méhu
Supporto tecnico e logistico : Manuel Goepfert
Aiuto per la traduzione : Arnaldo La Scala

Contatto : metmap@orbifly.com




FONTI E CREDITI :

   NOAA